Time;durP1;ratioP1;P1;durP2;ratioP2;P2;SDS_P1;SDS_P2;PMS_P1;PMS_P2;Temp;Humidity;BMP_temperature;BMP_pressure;BME280_temperature;BME280_humidity;BME280_pressure;Samples;Min_cycle;Max_cycle;Signal;HPM_P1;HPM_P2
2022/04/04 00:04:46;;;;;;;19.10;13.82;;;;;;;3.89;60.25;97871.28;10294460;28;20460;-61
2022/04/04 00:09:46;;;;;;;21.13;13.93;;;;;;;4.33;61.00;97935.81;10294749;28;20073;-61
2022/04/04 00:14:45;;;;;;;21.85;14.57;;;;;;;4.33;61.40;97948.66;10294132;28;20068;-61
2022/04/04 00:19:45;;;;;;;18.42;13.13;;;;;;;4.05;61.37;97901.66;10293989;28;20036;-62
2022/04/04 00:24:44;;;;;;;19.90;14.52;;;;;;;3.99;61.65;97899.81;10294618;28;20068;-61
2022/04/04 00:29:43;;;;;;;22.65;14.23;;;;;;;4.01;61.48;97866.47;10293575;28;20033;-61
2022/04/04 00:34:42;;;;;;;20.00;13.45;;;;;;;4.53;60.91;97947.47;10293837;28;20022;-61
2022/04/04 00:39:41;;;;;;;17.50;12.10;;;;;;;4.56;60.98;97942.41;10293818;28;20032;-61
2022/04/04 00:44:40;;;;;;;17.88;13.20;;;;;;;4.57;60.81;97941.59;10292672;28;20534;-61
2022/04/04 00:49:40;;;;;;;19.13;13.27;;;;;;;4.31;60.58;97901.50;10292988;28;20038;-61
2022/04/04 00:54:39;;;;;;;16.48;12.80;;;;;;;4.53;60.58;97944.91;10293474;28;20515;-61
2022/04/04 00:59:39;;;;;;;20.13;13.98;;;;;;;4.22;61.43;97923.56;10291625;28;20058;-61
2022/04/04 01:04:38;;;;;;;19.70;13.20;;;;;;;4.03;61.92;97929.00;10293251;28;20069;-61
2022/04/04 01:09:37;;;;;;;21.45;13.88;;;;;;;3.96;62.15;97894.56;10296507;28;20026;-61
2022/04/04 01:14:39;;;;;;;18.60;13.20;;;;;;;3.61;62.31;97848.31;10295620;28;20062;-61
2022/04/04 01:19:38;;;;;;;20.60;14.80;;;;;;;4.07;62.17;97933.41;10295208;28;20061;-61
2022/04/04 01:24:38;;;;;;;23.33;16.42;;;;;;;3.51;62.88;97848.00;10294930;28;20061;-61
2022/04/04 01:29:38;;;;;;;25.52;15.98;;;;;;;4.09;63.11;97939.44;10295054;28;20066;-61
2022/04/04 01:34:37;;;;;;;26.85;16.95;;;;;;;3.96;64.59;97933.09;10294398;28;20490;-61
2022/04/04 01:39:37;;;;;;;22.25;15.68;;;;;;;3.90;65.09;97947.47;10294497;28;20057;-61
2022/04/04 01:44:36;;;;;;;22.52;14.60;;;;;;;3.74;65.32;97935.91;10294809;28;20072;-61
2022/04/04 01:49:35;;;;;;;22.30;15.15;;;;;;;3.73;65.01;97936.69;10294013;28;20050;-61
2022/04/04 01:54:34;;;;;;;21.48;14.63;;;;;;;3.28;64.91;97861.00;10294121;28;20057;-61
2022/04/04 01:59:33;;;;;;;20.95;12.85;;;;;;;3.70;64.45;97937.50;10294006;28;20030;-61
2022/04/04 02:04:32;;;;;;;17.95;13.07;;;;;;;3.55;64.50;97919.97;10293012;28;20370;-61
2022/04/04 02:09:32;;;;;;;18.48;12.98;;;;;;;3.22;64.09;97856.59;10289245;28;20107;-61
2022/04/04 02:14:31;;;;;;;22.48;12.32;;;;;;;3.71;64.13;97913.59;10290418;28;20069;-61
2022/04/04 02:19:30;;;;;;;19.52;12.18;;;;;;;3.62;63.46;97918.44;10290244;28;20061;-61
2022/04/04 02:24:29;;;;;;;21.58;12.82;;;;;;;3.53;63.29;97933.56;10289966;28;20030;-61
2022/04/04 02:29:28;;;;;;;18.92;12.13;;;;;;;3.49;62.90;97942.84;10289941;28;20026;-61
2022/04/04 02:34:27;;;;;;;20.20;12.98;;;;;;;3.40;63.31;97948.59;10289903;28;20044;-61
2022/04/04 02:39:26;;;;;;;24.70;14.23;;;;;;;3.20;63.95;97900.97;10289534;28;20073;-61
2022/04/04 02:44:26;;;;;;;19.65;13.10;;;;;;;3.31;64.36;97906.41;10290022;28;20105;-61
2022/04/04 02:49:25;;;;;;;21.60;14.20;;;;;;;3.53;65.51;97938.69;10289206;28;20085;-61
2022/04/04 02:54:25;;;;;;;23.38;16.00;;;;;;;2.94;66.13;97829.25;10289400;28;20074;-61
2022/04/04 02:59:24;;;;;;;25.92;16.65;;;;;;;3.50;65.85;97936.06;10289402;28;20065;-61
2022/04/04 03:04:23;;;;;;;25.25;16.00;;;;;;;3.06;65.80;97866.34;10289416;28;20079;-61
2022/04/04 03:09:23;;;;;;;20.83;13.40;;;;;;;3.29;66.09;97924.31;10289127;28;20072;-61
2022/04/04 03:14:22;;;;;;;18.45;12.45;;;;;;;3.23;64.96;97926.69;10289230;28;20064;-61
2022/04/04 03:19:22;;;;;;;20.30;13.23;;;;;;;2.90;65.13;97914.56;10289377;28;20034;-61
2022/04/04 03:24:21;;;;;;;27.92;18.10;;;;;;;2.90;66.40;97940.19;10296378;28;20103;-61
2022/04/04 03:29:20;;;;;;;30.80;17.63;;;;;;;2.50;67.91;97894.47;10296051;28;20444;-61
2022/04/04 03:34:19;;;;;;;27.90;18.85;;;;;;;2.66;68.12;97950.53;10295891;28;20056;-61
2022/04/04 03:39:18;;;;;;;35.90;20.15;;;;;;;2.39;70.19;97942.75;10295865;28;20459;-61
2022/04/04 03:44:17;;;;;;;31.35;18.98;;;;;;;2.43;69.47;97941.19;10295660;28;20061;-61
2022/04/04 03:49:16;;;;;;;30.75;20.25;;;;;;;2.11;69.26;97913.69;10294923;28;20053;-61
2022/04/04 03:54:15;;;;;;;28.52;19.30;;;;;;;2.25;69.54;97962.78;10295226;28;20104;-61
2022/04/04 03:59:14;;;;;;;24.38;15.48;;;;;;;1.81;69.33;97918.59;10295100;28;20057;-61
2022/04/04 04:04:13;;;;;;;24.10;15.82;;;;;;;2.00;69.64;97973.84;10294512;28;20026;-61
2022/04/04 04:09:13;;;;;;;24.25;15.38;;;;;;;1.87;69.79;97992.13;10293456;28;20069;-61
2022/04/04 04:14:12;;;;;;;;;;;;;;;1.77;69.97;97993.47;10294070;28;20100;-61
2022/04/04 04:20:19;;;;;;;25.33;16.33;;;;;;;1.70;70.18;98004.31;10294202;28;19913;-61
2022/04/04 04:24:29;;;;;;;25.98;16.40;;;;;;;1.63;70.27;98021.09;10297631;28;20081;-61
2022/04/04 04:29:28;;;;;;;27.63;16.73;;;;;;;1.43;70.43;97996.44;10332669;28;20033;-61
2022/04/04 04:34:28;;;;;;;28.73;17.60;;;;;;;1.66;70.51;98036.56;10332865;28;20029;-61
2022/04/04 04:39:27;;;;;;;32.42;18.13;;;;;;;1.68;70.76;98044.28;10333935;28;20059;-61
2022/04/04 04:44:25;;;;;;;56.85;32.00;;;;;;;1.66;71.46;98051.91;10367827;28;20071;-61
2022/04/04 04:49:26;;;;;;;43.13;27.50;;;;;;;1.57;73.02;98054.09;10332446;28;20049;-61
2022/04/04 04:54:26;;;;;;;49.33;26.85;;;;;;;0.78;73.84;97939.34;10333302;28;20057;-61
2022/04/04 04:59:25;;;;;;;32.42;19.85;;;;;;;1.42;74.41;98061.19;10328085;28;20403;-61
2022/04/04 05:04:24;;;;;;;34.60;20.73;;;;;;;1.36;74.28;98068.59;10333677;28;20067;-61
2022/04/04 05:09:23;;;;;;;33.90;19.90;;;;;;;1.30;74.10;98041.13;10328108;28;20078;-62
2022/04/04 05:14:22;;;;;;;34.70;22.23;;;;;;;1.03;73.38;97982.09;10332345;28;20029;-62
2022/04/04 05:19:22;;;;;;;36.00;22.92;;;;;;;1.90;72.82;98081.78;10332373;28;20037;-62
2022/04/04 05:24:21;;;;;;;31.35;20.17;;;;;;;2.24;72.22;98089.06;10332079;28;20060;-62
2022/04/04 05:29:20;;;;;;;29.25;17.58;;;;;;;2.24;70.98;98042.97;10331989;28;20075;-62
2022/04/04 05:34:20;;;;;;;31.67;20.73;;;;;;;2.75;70.43;98106.28;10330554;28;20025;-62
2022/04/04 05:39:19;;;;;;;31.65;19.85;;;;;;;2.91;70.06;98094.84;10327621;28;20525;-62
2022/04/04 05:44:18;;;;;;;26.42;18.05;;;;;;;3.02;69.74;98066.19;10328364;28;20100;-62
2022/04/04 05:49:18;;;;;;;28.15;18.50;;;;;;;2.64;69.33;98023.03;10322713;28;20121;-62
2022/04/04 05:54:17;;;;;;;;;;;;;;;3.15;68.65;98095.69;10323143;28;20093;-62
2022/04/04 05:59:16;;;;;;;22.15;14.73;;;;;;;3.29;68.77;98105.56;10325451;28;19996;-62
2022/04/04 06:04:15;;;;;;;25.65;16.08;;;;;;;3.50;67.57;98115.66;10326004;28;20418;-62
2022/04/04 06:09:14;;;;;;;21.40;14.00;;;;;;;3.19;66.20;98012.03;10325038;28;20025;-62
2022/04/04 06:14:13;;;;;;;23.75;15.05;;;;;;;3.91;65.17;98098.97;10331168;28;20060;-62
2022/04/04 06:19:11;;;;;;;17.80;11.43;;;;;;;4.21;63.18;98114.44;10331702;28;20036;-62
2022/04/04 06:24:10;;;;;;;17.52;12.85;;;;;;;3.39;62.02;97944.28;10331947;28;20367;-62
2022/04/04 06:29:09;;;;;;;23.08;15.75;;;;;;;4.57;60.94;98105.19;10331934;28;20040;-62
2022/04/04 06:34:08;;;;;;;32.42;22.05;;;;;;;4.82;60.65;98099.03;10331767;28;20510;-62
2022/04/04 06:39:07;;;;;;;23.00;14.98;;;;;;;5.03;57.89;98088.47;10331841;28;20041;-62
2022/04/04 06:44:07;;;;;;;19.77;14.32;;;;;;;4.54;56.05;98015.16;10331351;28;20530;-62
2022/04/04 06:49:07;;;;;;;19.45;13.77;;;;;;;4.02;56.49;97945.25;10331387;28;20399;-62
2022/04/04 06:54:07;;;;;;;20.42;14.95;;;;;;;4.55;57.56;98024.59;10331293;28;20072;-62
2022/04/04 06:59:06;;;;;;;15.55;11.88;;;;;;;4.87;56.94;98067.47;10340092;28;20061;-62
2022/04/04 07:04:05;;;;;;;15.50;10.60;;;;;;;4.91;55.37;98022.13;10339034;28;20099;-62
2022/04/04 07:09:04;;;;;;;14.77;9.50;;;;;;;5.03;53.27;98021.59;10336177;28;20061;-62
2022/04/04 07:14:03;;;;;;;14.25;9.63;;;;;;;5.61;51.89;98096.81;10335671;28;20112;-62
2022/04/04 07:19:02;;;;;;;;;;;;;;;5.68;52.24;98088.38;10336395;28;20478;-62
2022/04/04 07:24:01;;;;;;;14.90;10.65;;;;;;;5.31;51.87;97974.25;10335924;28;20299;-62
2022/04/04 07:29:00;;;;;;;14.95;10.57;;;;;;;5.91;51.66;98096.66;10334140;28;20046;-62
2022/04/04 07:33:59;;;;;;;14.80;9.50;;;;;;;6.19;51.35;98104.16;10335561;28;20021;-62
2022/04/04 07:38:58;;;;;;;14.30;9.38;;;;;;;6.61;50.35;98103.31;10335658;28;20132;-62
2022/04/04 07:43:57;;;;;;;14.90;9.75;;;;;;;6.06;49.66;97999.06;10335744;28;20025;-62
2022/04/04 07:48:57;;;;;;;14.88;10.20;;;;;;;6.92;48.60;98101.34;10335502;28;20426;-62
2022/04/04 07:53:56;;;;;;;12.27;9.32;;;;;;;6.44;48.46;98070.28;10335165;28;20068;-62
2022/04/04 07:58:54;;;;;;;13.90;9.73;;;;;;;6.34;48.36;98072.66;10335122;28;20036;-62
2022/04/04 08:03:53;;;;;;;13.65;10.38;;;;;;;6.90;48.47;98104.72;10335069;28;20717;-62
2022/04/04 08:08:52;;;;;;;14.63;10.48;;;;;;;7.36;47.99;98101.28;10335997;28;20033;-62
2022/04/04 08:13:52;;;;;;;18.58;11.38;;;;;;;7.75;46.43;98094.19;10334640;28;20079;-62
2022/04/04 08:18:54;;;;;;;13.25;9.85;;;;;;;7.89;46.23;98084.91;10334699;28;20543;-62
2022/04/04 08:23:53;;;;;;;13.52;10.63;;;;;;;7.91;45.43;98090.97;10334138;28;20053;-62
2022/04/04 08:28:52;;;;;;;14.20;9.80;;;;;;;7.71;45.34;98069.13;10334797;28;20025;-62
2022/04/04 08:33:51;;;;;;;11.77;9.02;;;;;;;7.72;45.33;98047.66;10334269;28;20434;-62
2022/04/04 08:38:50;;;;;;;13.18;9.93;;;;;;;7.81;44.38;97994.38;10333958;28;20092;-62
2022/04/04 08:43:49;;;;;;;11.38;8.90;;;;;;;8.17;43.89;98060.34;10333186;28;20036;-62
2022/04/04 08:48:48;;;;;;;12.80;8.57;;;;;;;8.36;43.60;98060.56;10333436;28;20571;-62
2022/04/04 08:53:47;;;;;;;15.05;10.50;;;;;;;7.48;44.51;97950.03;10333331;28;20427;-62
2022/04/04 08:58:47;;;;;;;17.33;11.30;;;;;;;7.61;44.34;97957.06;10332741;28;20108;-62
2022/04/04 09:04:10;;;;;;;12.35;8.50;;;;;;;8.41;43.64;98026.19;10333174;28;20072;-62
2022/04/04 09:09:11;;;;;;;13.13;9.45;;;;;;;8.71;43.23;98014.44;10332163;28;20069;-62
2022/04/04 09:14:10;;;;;;;12.63;9.68;;;;;;;8.35;42.93;97979.56;10336310;28;20029;-62
2022/04/04 09:19:09;;;;;;;15.07;10.55;;;;;;;8.35;42.47;97948.53;10335236;28;20041;-62
2022/04/04 09:24:10;;;;;;;12.45;8.40;;;;;;;8.23;42.57;97888.94;10335302;28;20039;-62
2022/04/04 09:29:21;;;;;;;11.73;8.88;;;;;;;8.98;41.98;97984.50;10335839;28;20065;-62
2022/04/04 09:34:21;;;;;;;12.45;9.32;;;;;;;9.21;42.06;97979.50;10335424;28;20590;-62
2022/04/04 09:39:20;;;;;;;16.48;12.30;;;;;;;9.30;42.33;97956.31;10335643;28;20513;-62
2022/04/04 09:44:25;;;;;;;17.85;13.68;;;;;;;8.70;40.47;97902.31;10335076;28;20115;-62
2022/04/04 09:49:24;;;;;;;11.15;7.90;;;;;;;9.12;40.47;97949.25;10335251;28;20081;-62
2022/04/04 09:54:27;;;;;;;11.90;7.30;;;;;;;8.36;40.06;97799.41;10332617;28;20655;-62
2022/04/04 09:59:27;;;;;;;9.40;6.97;;;;;;;9.16;40.84;97901.81;10334459;28;20498;-62
2022/04/04 10:04:27;;;;;;;12.95;8.15;;;;;;;9.76;39.17;97909.97;10332923;28;20029;-62
2022/04/04 10:09:26;;;;;;;9.85;7.60;;;;;;;10.23;39.00;97919.63;10330761;28;20069;-62
2022/04/04 10:14:26;;;;;;;11.90;7.03;;;;;;;10.13;38.97;97918.75;10330756;28;20491;-62
2022/04/04 10:19:27;;;;;;;11.55;7.55;;;;;;;9.86;37.64;97840.88;10330737;28;20084;-62
2022/04/04 10:24:26;;;;;;;9.93;7.22;;;;;;;10.08;36.58;97837.50;10330157;28;20060;-62
2022/04/04 10:29:36;;;;;;;;;;;;;;;10.44;37.22;97886.84;10330211;28;20072;-62
2022/04/04 10:34:42;;;;;;;8.55;6.10;;;;;;;10.87;37.56;97882.59;10330191;28;19976;-62
2022/04/04 10:39:47;;;;;;;9.32;6.53;;;;;;;10.94;36.86;97847.06;10331093;28;20084;-62
2022/04/04 10:44:49;;;;;;;9.00;6.85;;;;;;;10.86;36.21;97867.84;10328329;28;20053;-62
2022/04/04 10:49:48;;;;;;;9.13;6.60;;;;;;;10.60;36.98;97785.66;10329647;28;20087;-62
2022/04/04 10:54:48;;;;;;;;;;;;;;;11.11;35.04;97847.94;10330073;28;20077;-62
2022/04/04 10:59:48;;;;;;;10.88;7.13;;;;;;;11.37;35.84;97836.63;10329993;28;20366;-62
2022/04/04 11:10:07;;;;;;;6.90;4.22;;;;;;;11.03;33.44;97834.97;10330071;28;20089;-62
2022/04/04 11:15:07;;;;;;;8.27;5.10;;;;;;;10.78;34.38;97792.56;10329392;28;20600;-62
2022/04/04 11:20:31;;;;;;;11.15;5.95;;;;;;;11.53;34.77;97801.94;10329657;28;20072;-62
2022/04/04 11:25:34;;;;;;;13.48;8.75;;;;;;;12.22;34.84;97766.84;10329604;28;20533;-62
2022/04/04 11:30:33;;;;;;;87.10;56.30;;;;;;;12.93;31.99;97798.41;10328974;28;20092;-62
2022/04/04 11:35:34;;;;;;;;;;;;;;;13.49;33.57;97798.66;10329833;28;20069;-62
2022/04/04 11:40:37;;;;;;;8.30;4.93;;;;;;;13.42;30.92;97787.44;10329683;28;19955;-62
2022/04/04 11:45:39;;;;;;;10.30;6.32;;;;;;;13.29;31.85;97739.81;10336031;28;20123;-62
2022/04/04 11:50:39;;;;;;;4.30;3.90;;;;;;;12.72;30.28;97736.97;10336384;28;20483;-62
2022/04/04 11:55:41;;;;;;;7.78;4.47;;;;;;;12.82;30.81;97769.84;10335853;28;20529;-62
2022/04/04 12:00:43;;;;;;;6.63;3.95;;;;;;;12.96;30.69;97768.84;10335641;28;20068;-62
2022/04/04 12:05:43;;;;;;;8.00;4.63;;;;;;;13.21;31.08;97753.78;10336886;28;20065;-62
2022/04/04 12:10:45;;;;;;;7.93;5.57;;;;;;;12.96;29.78;97730.63;10338746;28;20080;-62
2022/04/04 12:15:45;;;;;;;7.60;4.75;;;;;;;13.30;30.18;97745.88;10338814;28;20065;-62
2022/04/04 12:20:46;;;;;;;7.63;5.03;;;;;;;12.96;29.62;97741.06;10338305;28;20475;-62
2022/04/04 12:25:45;;;;;;;15.07;8.30;;;;;;;12.69;29.87;97717.00;10338224;28;20053;-62
2022/04/04 12:30:44;;;;;;;;;;;;;;;13.08;30.03;97733.09;10339210;28;20083;-62
2022/04/04 12:35:48;;;;;;;9.85;5.82;;;;;;;12.88;29.09;97633.47;10337708;28;20394;-61
2022/04/04 12:41:05;;;;;;;6.97;4.90;;;;;;;13.37;28.06;97698.00;10337794;28;20485;-62
2022/04/04 12:46:06;;;;;;;25.75;21.23;;;;;;;13.47;28.08;97715.25;10337477;28;20084;-62
2022/04/04 12:51:07;;;;;;;5.38;3.88;;;;;;;12.80;28.77;97653.56;10337395;28;20057;-62
2022/04/04 12:56:08;;;;;;;6.63;4.07;;;;;;;12.78;28.75;97700.44;10336283;28;20692;-62
2022/04/04 13:01:10;;;;;;;10.25;6.07;;;;;;;12.76;30.70;97677.91;10336828;28;20037;-62
2022/04/04 13:06:11;;;;;;;20.75;14.45;;;;;;;12.84;30.55;97635.28;10335192;28;20669;-62
2022/04/04 13:11:11;;;;;;;15.05;11.10;;;;;;;13.05;30.57;97681.03;10332723;28;20477;-62
2022/04/04 13:16:28;;;;;;;6.55;3.85;;;;;;;12.60;29.51;97628.63;10333567;28;20072;-61
2022/04/04 13:21:28;;;;;;;11.95;9.00;;;;;;;12.61;29.42;97665.91;10332495;28;20068;-62
2022/04/04 13:26:27;;;;;;;;;;;;;;;12.80;29.47;97663.97;10333257;28;20067;-62
2022/04/04 13:31:29;;;;;;;10.45;8.15;;;;;;;13.13;29.84;97671.38;10331958;28;19916;-61
2022/04/04 13:36:29;;;;;;;6.10;4.60;;;;;;;12.94;28.83;97607.38;10332037;28;20069;-62
2022/04/04 13:41:32;;;;;;;8.73;6.13;;;;;;;13.65;29.28;97653.34;10331881;28;20068;-62
2022/04/04 13:46:31;;;;;;;6.75;4.13;;;;;;;13.66;28.02;97655.06;10331470;28;20084;-62
2022/04/04 13:51:30;;;;;;;12.57;7.20;;;;;;;13.24;28.94;97653.00;10331570;28;20078;-62
2022/04/04 13:56:32;;;;;;;14.00;10.73;;;;;;;13.33;28.54;97646.81;10331479;28;20073;-62
2022/04/04 14:01:31;;;;;;;16.63;10.77;;;;;;;13.20;29.69;97624.41;10331068;28;20073;-62
2022/04/04 14:06:32;;;;;;;9.45;6.13;;;;;;;12.98;28.98;97619.47;10330212;28;20133;-62
2022/04/04 14:11:31;;;;;;;8.60;4.65;;;;;;;12.27;29.76;97565.66;10330811;28;20084;-62
2022/04/04 14:16:30;;;;;;;;;;;;;;;12.54;29.65;97613.06;10331045;28;20069;-61
2022/04/04 14:21:28;;;;;;;7.53;4.97;;;;;;;12.26;29.77;97573.44;10330240;28;19971;-62
2022/04/04 14:26:28;;;;;;;6.40;4.57;;;;;;;11.84;30.01;97562.56;10330871;28;20025;-61
2022/04/04 14:31:29;;;;;;;5.45;4.03;;;;;;;12.32;30.44;97601.16;10330757;28;20180;-61
2022/04/04 14:36:28;;;;;;;6.40;4.70;;;;;;;12.51;31.03;97569.72;10330710;28;20469;-61
2022/04/04 14:41:27;;;;;;;6.07;4.68;;;;;;;12.59;30.31;97582.63;10328083;28;20130;-61
2022/04/04 14:46:26;;;;;;;10.73;6.63;;;;;;;11.73;30.04;97461.28;10330214;28;20139;-61
2022/04/04 14:51:26;;;;;;;6.63;4.35;;;;;;;12.27;30.78;97568.25;10330059;28;20049;-61
2022/04/04 14:56:25;;;;;;;11.68;7.43;;;;;;;12.08;30.64;97535.47;10329987;28;20100;-61
2022/04/04 15:01:24;;;;;;;9.23;5.63;;;;;;;12.08;30.52;97561.47;10329463;28;20036;-61
2022/04/04 15:06:23;;;;;;;7.35;4.82;;;;;;;12.07;30.66;97550.22;10331541;28;20025;-61
2022/04/04 15:11:22;;;;;;;11.95;6.88;;;;;;;11.35;33.18;97552.59;10333073;28;20021;-61
2022/04/04 15:16:21;;;;;;;10.02;7.30;;;;;;;10.92;34.50;97571.91;10335191;28;20087;-61
2022/04/04 15:21:20;;;;;;;13.25;7.90;;;;;;;10.78;35.74;97571.94;10340703;28;20064;-61
2022/04/04 15:26:19;;;;;;;;;;;;;;;10.77;36.38;97584.91;10341176;28;20053;-61
2022/04/04 15:31:20;;;;;;;13.18;8.65;;;;;;;10.50;36.92;97589.34;10339283;28;19908;-61
2022/04/04 15:36:22;;;;;;;11.57;8.57;;;;;;;10.43;36.82;97585.06;10367276;28;20095;-62
2022/04/04 15:41:27;;;;;;;11.65;8.57;;;;;;;10.18;37.62;97560.91;10339137;28;20072;-62
2022/04/04 15:46:27;;;;;;;12.45;8.63;;;;;;;10.13;37.63;97594.63;10340135;28;20086;-62
2022/04/04 15:51:28;;;;;;;20.60;14.02;;;;;;;10.11;37.76;97601.53;10337929;28;20083;-62
2022/04/04 15:56:28;;;;;;;11.35;8.93;;;;;;;10.09;37.78;97605.88;10339403;28;20072;-62
2022/04/04 16:01:27;;;;;;;12.93;8.88;;;;;;;9.65;38.73;97618.84;10339453;28;20064;-61
2022/04/04 16:06:28;;;;;;;;;;;;;;;9.48;39.21;97611.94;10319621;28;20060;-62
2022/04/04 16:11:29;;;;;;;13.48;9.70;;;;;;;9.31;39.35;97614.50;10295670;28;20450;-62
2022/04/04 16:16:28;;;;;;;16.63;11.52;;;;;;;9.24;39.86;97630.84;10300502;28;20065;-61
2022/04/04 16:21:29;;;;;;;22.17;14.60;;;;;;;9.11;40.70;97629.09;10315789;28;20088;-62
2022/04/04 16:26:31;;;;;;;15.50;12.40;;;;;;;8.47;40.84;97555.56;10355976;28;20390;-61
2022/04/04 16:31:31;;;;;;;19.65;14.90;;;;;;;8.99;40.88;97642.84;10372627;28;20075;-61
2022/04/04 16:36:31;;;;;;;16.75;12.23;;;;;;;8.72;41.22;97636.72;10334368;28;20072;-61
2022/04/04 16:41:30;;;;;;;16.52;11.98;;;;;;;8.47;41.19;97611.59;10331850;28;20065;-62
2022/04/04 16:46:29;;;;;;;22.63;13.90;;;;;;;8.46;41.86;97618.50;10334353;28;20049;-62
2022/04/04 16:51:28;;;;;;;17.80;12.23;;;;;;;8.32;41.88;97630.50;10334247;28;20480;-61
2022/04/04 16:56:27;;;;;;;13.88;10.60;;;;;;;8.00;42.39;97588.94;10333703;28;20471;-61
2022/04/04 17:01:26;;;;;;;17.05;12.20;;;;;;;8.19;42.37;97620.91;10334112;28;20033;-61
2022/04/04 17:06:25;;;;;;;17.08;11.57;;;;;;;8.17;42.76;97622.63;10333323;28;20121;-61
2022/04/04 17:11:24;;;;;;;18.17;11.75;;;;;;;8.09;42.60;97636.38;10332915;28;20506;-61
2022/04/04 17:16:23;;;;;;;17.75;12.38;;;;;;;7.96;42.58;97618.19;10333373;28;20056;-61
2022/04/04 17:21:22;;;;;;;19.25;13.70;;;;;;;7.77;43.27;97576.72;10332758;28;20458;-61
2022/04/04 17:26:21;;;;;;;16.55;13.73;;;;;;;7.98;42.64;97595.81;10332765;28;20025;-61
2022/04/04 17:31:20;;;;;;;18.90;13.98;;;;;;;8.26;42.50;97622.69;10332382;28;20037;-61
2022/04/04 17:36:19;;;;;;;51.65;28.52;;;;;;;8.32;42.41;97643.41;10328829;28;20091;-61
2022/04/04 17:41:18;;;;;;;18.27;12.75;;;;;;;8.28;43.05;97655.44;10351041;28;20033;-61
2022/04/04 17:46:17;;;;;;;223.13;90.10;;;;;;;8.27;42.81;97658.00;10331839;28;20103;-61
2022/04/04 17:51:16;;;;;;;584.30;342.05;;;;;;;8.21;43.49;97656.25;10331374;28;20491;-61
2022/04/04 17:56:15;;;;;;;50.75;35.03;;;;;;;8.06;44.16;97632.88;10331857;28;20044;-61
2022/04/04 18:01:16;;;;;;;16.27;11.20;;;;;;;8.23;45.48;97674.38;10331394;28;20410;-61
2022/04/04 18:06:15;;;;;;;16.83;13.23;;;;;;;7.80;48.07;97649.09;10330394;28;20601;-62
2022/04/04 18:11:14;;;;;;;21.92;15.40;;;;;;;7.76;48.61;97677.47;10354989;28;20053;-61
2022/04/04 18:16:13;;;;;;;17.77;12.48;;;;;;;7.78;48.10;97686.06;10371616;28;20414;-61
2022/04/04 18:21:12;;;;;;;17.80;12.93;;;;;;;7.72;48.17;97691.19;10371319;28;20056;-61
2022/04/04 18:26:11;;;;;;;45.45;33.58;;;;;;;7.57;47.28;97673.81;10371451;28;20109;-61
2022/04/04 18:31:12;;;;;;;34.78;25.60;;;;;;;7.63;48.85;97685.06;10371020;28;20067;-61
2022/04/04 18:36:11;;;;;;;39.58;28.80;;;;;;;7.52;50.07;97704.78;10371008;28;20076;-61
2022/04/04 18:41:11;;;;;;;;;;;;;;;7.50;51.33;97693.56;10352125;28;20471;-61
2022/04/04 18:46:11;;;;;;;106.80;70.93;;;;;;;7.12;50.98;97621.72;10329778;28;19975;-61
2022/04/04 18:51:10;;;;;;;41.25;29.38;;;;;;;7.37;52.15;97655.53;10330076;28;20069;-61
2022/04/04 18:56:09;;;;;;;18.45;13.55;;;;;;;7.48;52.13;97673.75;10338209;28;20088;-61
2022/04/04 19:01:09;;;;;;;22.52;12.65;;;;;;;7.59;51.64;97683.34;10337936;28;20037;-61
2022/04/04 19:06:08;;;;;;;30.60;18.77;;;;;;;7.59;51.28;97680.75;10336293;28;20079;-61
2022/04/04 19:11:07;;;;;;;27.55;19.02;;;;;;;7.35;51.63;97640.00;10350233;28;20151;-61
2022/04/04 19:16:07;;;;;;;30.65;22.35;;;;;;;7.44;51.75;97667.69;10376967;28;20079;-61
2022/04/04 19:21:06;;;;;;;31.58;21.63;;;;;;;7.52;52.29;97668.63;10378236;28;20060;-61
2022/04/04 19:26:05;;;;;;;;;;;;;;;7.49;51.88;97665.13;10378542;28;20478;-61
2022/04/04 19:31:04;;;;;;;25.45;17.17;;;;;;;7.00;52.55;97590.63;10377881;28;20538;-61
2022/04/04 19:36:03;;;;;;;25.05;16.90;;;;;;;7.18;52.45;97634.69;10377963;28;20029;-61
2022/04/04 19:41:02;;;;;;;19.15;15.10;;;;;;;6.47;52.04;97526.44;10359974;28;20076;-61
2022/04/04 19:46:02;;;;;;;21.63;14.63;;;;;;;6.77;51.66;97578.38;10335013;28;20049;-61
2022/04/04 19:51:01;;;;;;;23.35;16.90;;;;;;;6.96;51.44;97619.81;10335533;28;20092;-61
2022/04/04 19:56:00;;;;;;;22.23;15.88;;;;;;;6.92;52.29;97620.66;10335908;28;20388;-61
2022/04/04 20:01:00;;;;;;;23.08;16.17;;;;;;;6.58;52.29;97584.13;10336126;28;20577;-61
2022/04/04 20:05:59;;;;;;;23.40;16.77;;;;;;;6.67;53.13;97609.16;10336126;28;20049;-61
2022/04/04 20:10:58;;;;;;;29.00;17.55;;;;;;;6.50;52.66;97604.69;10338369;28;20048;-61
2022/04/04 20:15:57;;;;;;;31.02;19.27;;;;;;;6.44;52.48;97593.41;10379850;28;20032;-61
2022/04/04 20:20:57;;;;;;;27.27;17.60;;;;;;;6.43;52.77;97602.88;10378980;28;20024;-61
2022/04/04 20:26:00;;;;;;;30.98;20.90;;;;;;;6.35;53.23;97620.81;10379083;28;20058;-61
2022/04/04 20:30:59;;;;;;;28.45;19.67;;;;;;;6.17;53.28;97610.25;10379136;28;20458;-61
2022/04/04 20:35:58;;;;;;;29.67;20.73;;;;;;;6.13;53.96;97611.03;10377327;28;20069;-61
2022/04/04 20:40:59;;;;;;;31.27;20.25;;;;;;;5.72;53.58;97539.22;10368067;28;20076;-61
2022/04/04 20:45:58;;;;;;;128.38;74.72;;;;;;;5.92;53.82;97596.16;10374347;28;20628;-61
2022/04/04 20:50:57;;;;;;;49.38;35.13;;;;;;;5.91;55.94;97599.56;10378019;28;20063;-61
2022/04/04 20:55:57;;;;;;;41.22;26.60;;;;;;;5.83;57.48;97589.13;10377863;28;20072;-61
2022/04/04 21:00:56;;;;;;;;;;;;;;;5.71;58.21;97588.97;10379106;28;20068;-61
2022/04/04 21:05:55;;;;;;;29.15;19.42;;;;;;;5.60;59.00;97581.06;10376385;28;19913;-61
2022/04/04 21:10:55;;;;;;;;;;;;;;;5.39;59.90;97586.75;10374557;28;20065;-61
2022/04/04 21:15:54;;;;;;;132.00;87.57;;;;;;;5.30;60.07;97576.31;10365272;28;20048;-61
2022/04/04 21:20:54;;;;;;;30.83;20.58;;;;;;;5.28;59.89;97567.69;10373765;28;20086;-61
2022/04/04 21:25:53;;;;;;;;;;;;;;;5.23;59.86;97574.47;10374497;28;20057;-61
2022/04/04 21:30:52;;;;;;;31.63;20.00;;;;;;;5.21;60.08;97581.28;10373237;28;19955;-61
2022/04/04 21:35:51;;;;;;;24.63;13.85;;;;;;;4.49;60.55;97491.69;10372895;28;20056;-61
2022/04/04 21:40:50;;;;;;;35.08;22.23;;;;;;;4.84;61.99;97594.31;10365648;28;20036;-61
2022/04/04 21:45:51;;;;;;;35.38;23.60;;;;;;;4.46;62.16;97558.44;10351132;28;20130;-61
2022/04/04 21:50:51;;;;;;;29.35;20.02;;;;;;;4.11;62.49;97521.78;10372628;28;20060;-61
2022/04/04 21:55:49;;;;;;;;;;;;;;;4.41;62.53;97592.59;10373096;28;20083;-61
2022/04/04 22:00:49;;;;;;;28.75;18.40;;;;;;;4.04;62.81;97537.91;10372757;28;19912;-61
2022/04/04 22:05:48;;;;;;;30.95;19.15;;;;;;;4.28;62.53;97594.91;10371667;28;20057;-61
2022/04/04 22:10:47;;;;;;;31.38;21.00;;;;;;;4.00;62.99;97554.06;10372052;28;20025;-61
2022/04/04 22:15:46;;;;;;;39.33;23.75;;;;;;;4.16;63.23;97593.78;10362529;28;20029;-61
2022/04/04 22:20:45;;;;;;;60.50;35.45;;;;;;;4.12;63.03;97615.09;10367585;28;20035;-61
2022/04/04 22:25:44;;;;;;;130.90;76.63;;;;;;;4.05;63.35;97584.13;10368207;28;20332;-61
2022/04/04 22:30:43;;;;;;;216.02;121.30;;;;;;;3.56;63.54;97523.13;10368172;28;20033;-61
2022/04/04 22:35:42;;;;;;;196.57;111.18;;;;;;;3.59;64.08;97557.44;10370570;28;20029;-61
2022/04/04 22:40:41;;;;;;;195.43;111.30;;;;;;;3.20;63.92;97490.69;10364943;28;20053;-61
2022/04/04 22:45:40;;;;;;;177.32;101.00;;;;;;;3.49;64.41;97542.66;10336344;28;20048;-61
2022/04/04 22:50:39;;;;;;;155.23;91.93;;;;;;;3.70;63.98;97580.75;10371062;28;20061;-61
2022/04/04 22:55:38;;;;;;;80.07;48.45;;;;;;;3.37;64.19;97526.97;10371059;28;20060;-61
2022/04/04 23:00:37;;;;;;;53.95;33.47;;;;;;;3.63;64.94;97579.75;10370559;28;20406;-61
2022/04/04 23:05:36;;;;;;;61.47;36.75;;;;;;;3.59;64.79;97585.66;10370955;28;20035;-61
2022/04/04 23:10:35;;;;;;;75.50;45.10;;;;;;;3.46;65.93;97580.22;10370981;28;20132;-61
2022/04/04 23:15:34;;;;;;;75.30;42.95;;;;;;;3.37;66.43;97576.56;10363081;28;20116;-61